map of MLM home
MLM - Airport
Location
City:  Morelia, Michoacán de Ocampo, México
Name:General Francisco J. Mujica International Airport
ICAO:MMMM
IATA:MLM

Details
Type:Airport (Aerodrome, Airfield)
Use:Public/Civil, International (customs port of entry)
Latitude:19°51'00"N (19.849944)
Longitude:101°01'32"W (-101.025499)
Datum:WGS 1984
Elevation:6033 ft (1839 m)
Variation:5.31°E (WMM2015 magnetic declination)
-0.11° annual change
Runways:1
Longest:11155 × 148 ft (3400 × 45 m), paved

Time
Time Zone:UTC-6 (DST-5)
Local Time:

Weather
METAR:MMMM 150945Z 00000KT 7SM SKC 02/02 A3030
TAF:MMMM 142328Z 1500/1606 00000KT P6SM BKN230
FM151600 34010KT P6SM SCT230
BECMG 1602/1603 00000KT

Related Locations
Nearby:
Farthest:NKW: 11466 mi / 18453 km
Diego Garcia, Chagos Archipelago, IO

Find:

   beyond  
but within

Other Information
Maps:
NOTAMs:
Links:
Sources:

  
  • flag of México
  • flag of Michoacán de Ocampo
  

Sectional Chart

Flight Planning
at skyvector.com

Satellite Image

Google Maps Satellite view

 

Copyright © 2004-2018 Karl L. Swartz. All rights reserved.
The Great Circle Mapper name and logo are trademarks of the Great Circle Mapper.
All other trademarks mentioned herein belong to their respective owners.
Please see credits for attibutions and further copyright information.

  Follow gcmap on Facebook Follow gcmap on Twitter Follow gcmap on Google+ GCmap on LinkedIn

hCard Microformat

Geo Microformat